This is the latest recevied weather packets stored in our database for station/object OE3XOC-11. If no packets are shown the sender has not sent any weather packets the latest 1 day(s).
| Time | Temp. | Humidity | Pressure | Rain* | Wind** | Luminosity | Snow |
|---|---|---|---|---|---|---|---|
| 1778046706 | 19.44° C | 50% | 954.6 hPa | - | - | - | - |
| 1778046106 | 19.44° C | 48% | 954.4 hPa | - | - | - | - |
| 1778045806 | 19.44° C | 49% | 954.5 hPa | - | - | - | - |
| 1778045506 | 18.89° C | 52% | 954.4 hPa | - | - | - | - |
| 1778045206 | 17.78° C | 54% | 954.5 hPa | - | - | - | - |
| 1778044906 | 17.78° C | 55% | 954.6 hPa | - | - | - | - |
| 1778044606 | 17.22° C | 58% | 954.6 hPa | - | - | - | - |
| 1778044306 | 17.22° C | 59% | 954.6 hPa | - | - | - | - |
| 1778044006 | 17.22° C | 59% | 954.5 hPa | - | - | - | - |
| 1778043706 | 17.78° C | 58% | 954.4 hPa | - | - | - | - |
| 1778043406 | 17.22° C | 58% | 954.5 hPa | - | - | - | - |
| 1778043106 | 17.78° C | 57% | 954.4 hPa | - | - | - | - |
| 1778042806 | 17.22° C | 59% | 954.4 hPa | - | - | - | - |
| 1778042506 | 17.22° C | 58% | 954.4 hPa | - | - | - | - |
| 1778042206 | 17.22° C | 59% | 954.3 hPa | - | - | - | - |
| 1778041906 | 17.22° C | 60% | 954.3 hPa | - | - | - | - |
| 1778041606 | 17.22° C | 61% | 954.2 hPa | - | - | - | - |
| 1778041306 | 16.67° C | 61% | 954.2 hPa | - | - | - | - |
| 1778041006 | 16.67° C | 62% | 954.1 hPa | - | - | - | - |
| 1778040706 | 16.67° C | 63% | 954.1 hPa | - | - | - | - |
| 1778040406 | 16.67° C | 64% | 954.1 hPa | - | - | - | - |
| 1778040106 | 16.67° C | 65% | 954.1 hPa | - | - | - | - |
| 1778039806 | 16.11° C | 66% | 954 hPa | - | - | - | - |
| 1778039506 | 16.11° C | 67% | 953.9 hPa | - | - | - | - |
| 1778039206 | 16.11° C | 68% | 953.9 hPa | - | - | - | - |
* Rain since midnight (hover to see other rain measurements)
** Current wind speed in m/s (hover to see current wind gust speed)